Arcadia, Illinois
Current Conditions -  °F | °C
As of 12:35 AM on Wednesday 28 Jan 2015 (Local Time) from KIJX Reporting Station
Haze Haze  
Wind Chill: 28°   Ceiling: Unl
Heat Index: 28°   Visibility: 5mi
Dew Point: 25°   Wind: 3mph
Humidity: 90%   Direction: 110°ESE
Pressure: 30.24"   Gusts: NA
Location:  39.7413°N, 90.2138°W
Report Text: KIJX 280635Z AUTO 11003KT 5SM BR CLR M02/M04 A3024 RMK AO2 T10241039
Loading
Personal Weather Stations






























Interactive Weather Map New forecast layout! Learn more

10-Day Weather Forecast

Advertisements
Track Severe Weather on mobile